createdAt,value
2024-03-13T00:01:19.310Z,99015.59
2024-03-13T00:03:23.047Z,99022.78
2024-03-13T00:05:31.938Z,99023.22
2024-03-13T00:07:34.870Z,99021.78
2024-03-13T00:09:45.661Z,99021.94
2024-03-13T00:11:50.063Z,99027.13
2024-03-13T00:13:53.368Z,99018.66
2024-03-13T00:15:57.215Z,99024.06
2024-03-13T00:18:00.315Z,99028.81
2024-03-13T00:20:05.238Z,99011.31
2024-03-13T00:22:08.625Z,99026.13
2024-03-13T00:24:11.568Z,99020.13
2024-03-13T00:26:14.777Z,99019.72
2024-03-13T00:28:19.404Z,99020.34
2024-03-13T00:30:23.297Z,99021.56
2024-03-13T00:32:26.706Z,99024.47
2024-03-13T00:34:29.727Z,99016.44
2024-03-13T00:36:32.755Z,99025.28
2024-03-13T00:38:36.325Z,99019.50
2024-03-13T00:40:40.588Z,99024.84
2024-03-13T00:42:44.064Z,99020.13
2024-03-13T00:44:48.393Z,99024.00
2024-03-13T00:46:51.426Z,99028.34
2024-03-13T00:48:56.134Z,99026.28
2024-03-13T00:50:59.286Z,99024.44
2024-03-13T00:53:02.677Z,99026.28
2024-03-13T00:55:11.808Z,99024.84
2024-03-13T00:57:16.457Z,99028.56
2024-03-13T00:59:20.307Z,99026.66
2024-03-13T01:01:24.786Z,99029.75
2024-03-13T01:03:27.985Z,99028.72
2024-03-13T01:05:32.105Z,99026.06
2024-03-13T01:07:36.526Z,99027.28
2024-03-13T01:09:40.111Z,99020.28
2024-03-13T01:11:43.810Z,99026.66
2024-03-13T01:13:46.895Z,99018.41
2024-03-13T01:15:49.783Z,99023.56
2024-03-13T01:17:54.771Z,99023.38
2024-03-13T01:19:58.685Z,99027.50
2024-03-13T01:22:11.894Z,99027.88
2024-03-13T01:24:14.927Z,99034.44
2024-03-13T01:26:17.738Z,99033.63
2024-03-13T01:28:22.929Z,99029.91
2024-03-13T01:30:25.921Z,99034.06
2024-03-13T01:32:28.985Z,99030.34
2024-03-13T01:34:34.198Z,99024.59
2024-03-13T01:36:55.955Z,99027.06
2024-03-13T01:38:58.849Z,99032.22
2024-03-13T01:41:20.219Z,99027.69
2024-03-13T01:43:41.853Z,99027.69
2024-03-13T01:46:38.396Z,99024.00
2024-03-13T01:49:00.119Z,99023.63
2024-03-13T01:51:23.400Z,99033.09
2024-03-13T01:53:46.871Z,99031.41
2024-03-13T01:55:50.535Z,99025.44
2024-03-13T01:58:00.689Z,99027.50
2024-03-13T02:00:24.399Z,99023.16
2024-03-13T02:02:28.240Z,99022.16
2024-03-13T02:04:31.847Z,99016.22
2024-03-13T02:06:37.178Z,99020.31
2024-03-13T02:08:41.628Z,99020.72
2024-03-13T02:10:44.757Z,99023.00
2024-03-13T02:13:06.399Z,99018.88
2024-03-13T02:15:09.984Z,99021.13
2024-03-13T02:17:12.866Z,99015.19
2024-03-13T02:19:16.424Z,99017.44
2024-03-13T02:21:19.496Z,99014.75
2024-03-13T02:23:23.282Z,99010.88
2024-03-13T02:25:26.170Z,99014.78
2024-03-13T02:27:29.054Z,99014.97
2024-03-13T02:29:32.932Z,99008.56
2024-03-13T02:31:36.234Z,99017.44
2024-03-13T02:33:38.979Z,98995.66
2024-03-13T02:35:44.566Z,99011.31
2024-03-13T02:37:47.053Z,99008.81
2024-03-13T02:39:49.892Z,99013.31
2024-03-13T02:41:52.895Z,99017.25
2024-03-13T02:44:00.589Z,99019.94
2024-03-13T02:46:04.106Z,99019.09
2024-03-13T02:48:08.175Z,99016.44
2024-03-13T02:50:13.331Z,99019.09
2024-03-13T02:52:16.286Z,99018.28
2024-03-13T02:54:19.164Z,99017.06
2024-03-13T02:56:22.051Z,99021.38
2024-03-13T02:58:25.113Z,99017.50
2024-03-13T03:00:27.966Z,99015.63
2024-03-13T03:02:30.905Z,99013.16
2024-03-13T03:04:33.848Z,99021.19
2024-03-13T03:06:36.639Z,99017.91
2024-03-13T03:08:42.624Z,99018.34
2024-03-13T03:10:45.394Z,99022.84
2024-03-13T03:12:49.024Z,99025.75
2024-03-13T03:14:51.832Z,99024.09
2024-03-13T03:16:56.275Z,99027.19
2024-03-13T03:18:59.092Z,99031.09
2024-03-13T03:21:04.268Z,99026.41
2024-03-13T03:23:07.535Z,99036.06
2024-03-13T03:25:11.334Z,99032.34
2024-03-13T03:27:14.374Z,99032.34
2024-03-13T03:29:18.612Z,99040.97
2024-03-13T03:31:21.367Z,99043.84
2024-03-13T03:33:24.566Z,99043.63
2024-03-13T03:35:29.060Z,99041.78
2024-03-13T03:37:32.804Z,99046.53
2024-03-13T03:39:35.687Z,99048.97
2024-03-13T03:41:38.581Z,99045.91
2024-03-13T03:43:41.275Z,99049.59
2024-03-13T03:45:45.176Z,99042.19
2024-03-13T03:47:54.439Z,99045.69
2024-03-13T03:50:00.653Z,99052.88
2024-03-13T03:52:04.482Z,99052.88
2024-03-13T03:54:07.344Z,99051.47
2024-03-13T03:56:10.366Z,99054.16
2024-03-13T03:58:13.800Z,99048.81
2024-03-13T04:00:18.078Z,99048.38
2024-03-13T04:02:21.114Z,99052.25
2024-03-13T04:04:25.515Z,99054.16
2024-03-13T04:06:28.486Z,99054.94
2024-03-13T04:08:31.383Z,99061.31
2024-03-13T04:10:34.274Z,99057.16
2024-03-13T04:12:37.271Z,99058.66
2024-03-13T04:14:40.142Z,99052.88
2024-03-13T04:16:45.169Z,99058.22
2024-03-13T04:18:48.171Z,99059.03
2024-03-13T04:20:52.134Z,99067.06
2024-03-13T04:22:56.286Z,99061.50
2024-03-13T04:24:59.098Z,99066.44
2024-03-13T04:27:01.984Z,99066.44
2024-03-13T04:29:06.126Z,99062.50
2024-03-13T04:31:08.950Z,99069.91
2024-03-13T04:33:11.845Z,99071.38
2024-03-13T04:35:14.740Z,99074.41
2024-03-13T04:37:17.495Z,99072.56
2024-03-13T04:39:20.298Z,99072.78
2024-03-13T04:41:24.197Z,99073.19
2024-03-13T04:43:29.018Z,99076.25
2024-03-13T04:45:31.812Z,99074.59
2024-03-13T04:47:38.515Z,99069.84
2024-03-13T04:49:44.935Z,99075.47
2024-03-13T04:51:48.924Z,99080.16
2024-03-13T04:53:51.755Z,99084.28
2024-03-13T04:55:54.604Z,99083.88
2024-03-13T04:57:58.472Z,99083.50
2024-03-13T05:00:01.595Z,99088.84
2024-03-13T05:02:04.880Z,99085.56
2024-03-13T05:04:07.997Z,99088.00
2024-03-13T05:06:10.804Z,99091.31
2024-03-13T05:08:15.495Z,99091.50
2024-03-13T05:10:19.072Z,99096.88
2024-03-13T05:12:22.413Z,99089.22
2024-03-13T05:14:25.295Z,99096.03
2024-03-13T05:16:28.441Z,99097.25
2024-03-13T05:18:32.007Z,99100.94
2024-03-13T05:20:35.576Z,99105.06
2024-03-13T05:22:38.478Z,99115.38
2024-03-13T05:24:42.398Z,99101.59
2024-03-13T05:26:45.555Z,99103.84
2024-03-13T05:28:48.467Z,99113.75
2024-03-13T05:30:51.348Z,99110.41
2024-03-13T05:32:54.301Z,99111.47
2024-03-13T05:34:57.341Z,99110.44
2024-03-13T05:37:01.760Z,99122.16
2024-03-13T05:39:06.598Z,99123.38
2024-03-13T05:41:09.550Z,99122.94
2024-03-13T05:43:12.704Z,99121.31
2024-03-13T05:45:15.865Z,99123.59
2024-03-13T05:47:18.827Z,99122.56
2024-03-13T05:49:21.643Z,99126.66
2024-03-13T05:51:24.684Z,99124.00
2024-03-13T05:53:27.521Z,99125.63
2024-03-13T05:55:30.401Z,99131.63
2024-03-13T05:57:33.355Z,99125.63
2024-03-13T05:59:36.478Z,99128.91
2024-03-13T06:01:39.537Z,99129.13
2024-03-13T06:03:42.425Z,99135.91
2024-03-13T06:05:46.666Z,99139.16
2024-03-13T06:07:49.449Z,99137.97
2024-03-13T06:09:52.344Z,99145.78
2024-03-13T06:11:55.125Z,99146.38
2024-03-13T06:13:57.993Z,99144.13
2024-03-13T06:16:00.898Z,99143.28
2024-03-13T06:18:03.812Z,99151.56
2024-03-13T06:20:15.007Z,99145.16
2024-03-13T06:22:18.016Z,99149.25
2024-03-13T06:24:32.150Z,99152.75
2024-03-13T06:26:35.541Z,99152.34
2024-03-13T06:28:57.176Z,99152.34
2024-03-13T06:31:03.517Z,99154.59
2024-03-13T06:33:06.435Z,99150.69
2024-03-13T06:35:09.386Z,99161.22
2024-03-13T06:37:12.648Z,99156.88
2024-03-13T06:39:15.615Z,99152.13
2024-03-13T06:41:18.494Z,99162.59
2024-03-13T06:43:21.561Z,99162.81
2024-03-13T06:45:28.410Z,99165.88
2024-03-13T06:47:38.356Z,99170.19
2024-03-13T06:49:41.220Z,99165.84
2024-03-13T06:51:44.228Z,99168.34
2024-03-13T06:53:47.101Z,99168.97
2024-03-13T06:55:51.294Z,99167.91
2024-03-13T06:57:54.222Z,99169.56
2024-03-13T07:00:00.183Z,99175.75
2024-03-13T07:02:03.395Z,99173.91
2024-03-13T07:04:06.376Z,99173.91
2024-03-13T07:06:12.815Z,99174.53
2024-03-13T07:08:16.195Z,99184.81
2024-03-13T07:10:19.025Z,99184.78
2024-03-13T07:12:22.114Z,99192.44
2024-03-13T07:14:25.571Z,99183.16
2024-03-13T07:16:28.412Z,99192.19
2024-03-13T07:18:32.584Z,99184.34
2024-03-13T07:20:35.467Z,99183.91
2024-03-13T07:22:40.312Z,99184.97
2024-03-13T07:24:43.225Z,99185.78
2024-03-13T07:26:46.716Z,99183.94
2024-03-13T07:28:50.324Z,99190.75
2024-03-13T07:30:53.237Z,99189.28
2024-03-13T07:32:56.200Z,99190.31
2024-03-13T07:34:59.845Z,99189.69
2024-03-13T07:37:02.783Z,99187.63
2024-03-13T07:39:06.330Z,99198.34
2024-03-13T07:41:12.249Z,99194.44
2024-03-13T07:43:15.110Z,99189.91
2024-03-13T07:45:18.104Z,99195.66
2024-03-13T07:47:20.941Z,99189.31
2024-03-13T07:49:23.877Z,99200.00
2024-03-13T07:51:26.867Z,99204.09
2024-03-13T07:53:31.345Z,99203.88
2024-03-13T07:55:34.495Z,99206.91
2024-03-13T07:57:37.596Z,99206.28
2024-03-13T07:59:42.256Z,99203.56
2024-03-13T08:01:47.300Z,99210.53
2024-03-13T08:03:50.171Z,99208.03
2024-03-13T09:06:51.337Z,99255.22
2024-03-13T09:08:54.167Z,99265.19
2024-03-13T09:10:58.731Z,99260.09
2024-03-13T09:13:04.154Z,99256.84
2024-03-13T09:15:07.730Z,99261.28
2024-03-13T09:17:10.992Z,99266.34
2024-03-13T09:19:13.840Z,99264.44
2024-03-13T09:21:18.265Z,99265.16
2024-03-13T09:23:21.095Z,99272.06
2024-03-13T09:25:24.091Z,99268.84
2024-03-13T09:27:27.023Z,99268.47
2024-03-13T09:29:30.954Z,99275.75
2024-03-13T09:31:34.720Z,99269.72
2024-03-13T09:33:37.671Z,99278.13
2024-03-13T09:35:40.883Z,99282.69
2024-03-13T09:37:43.820Z,99288.69
2024-03-13T09:39:46.714Z,99287.19
2024-03-13T09:41:49.509Z,99291.56
2024-03-13T09:43:52.628Z,99289.31
2024-03-13T09:45:55.488Z,99285.19
2024-03-13T09:47:58.583Z,99294.00
2024-03-13T09:50:06.936Z,99295.88
2024-03-13T09:52:10.945Z,99295.13
2024-03-13T09:54:14.296Z,99298.50
2024-03-13T09:56:18.801Z,99296.66
2024-03-13T09:58:22.122Z,99290.94
2024-03-13T10:00:25.351Z,99289.88
2024-03-13T10:02:28.856Z,99296.53
2024-03-13T10:04:32.079Z,99296.06
2024-03-13T10:06:34.804Z,99291.06
2024-03-13T10:08:37.769Z,99296.81
2024-03-13T10:10:42.602Z,99288.25
2024-03-13T10:12:46.137Z,99295.03
2024-03-13T10:14:49.004Z,99285.31
2024-03-13T10:16:57.371Z,99287.41
2024-03-13T10:19:01.996Z,99285.16
2024-03-13T10:21:06.770Z,99292.66
2024-03-13T10:23:09.576Z,99288.34
2024-03-13T10:25:12.846Z,99289.19
2024-03-13T10:27:15.833Z,99286.84
2024-03-13T10:29:19.079Z,99293.50
2024-03-13T10:31:22.439Z,99290.44
2024-03-13T10:33:25.506Z,99295.41
2024-03-13T10:35:28.396Z,99289.63
2024-03-13T10:37:31.716Z,99299.41
2024-03-13T10:39:35.880Z,99292.56
2024-03-13T10:41:38.766Z,99290.22
2024-03-13T10:43:43.604Z,99288.44
2024-03-13T10:45:49.333Z,99293.97
2024-03-13T10:47:51.915Z,99290.22
2024-03-13T10:49:55.049Z,99287.94
2024-03-13T10:51:59.307Z,99301.88
2024-03-13T10:54:04.561Z,99298.34
2024-03-13T10:56:13.175Z,99288.44
2024-03-13T10:58:19.928Z,99284.13
2024-03-13T11:00:23.083Z,99294.03
2024-03-13T11:02:26.148Z,99292.19
2024-03-13T11:04:28.972Z,99285.28
2024-03-13T11:06:34.000Z,99286.25
2024-03-13T11:08:36.962Z,99283.47
2024-03-13T11:10:40.044Z,99278.88
2024-03-13T11:12:43.545Z,99285.09
2024-03-13T11:14:52.435Z,99291.63
2024-03-13T11:16:56.825Z,99282.69
2024-03-13T11:18:59.735Z,99293.97
2024-03-13T11:21:03.117Z,99280.16
2024-03-13T11:23:06.964Z,99283.38
2024-03-13T11:25:13.764Z,99282.50
2024-03-13T11:27:17.275Z,99277.66
2024-03-13T11:29:21.647Z,99282.31
2024-03-13T11:31:24.830Z,99281.44
2024-03-13T11:33:27.707Z,99277.97
2024-03-13T11:35:30.884Z,99272.84
2024-03-13T11:37:34.530Z,99269.56
2024-03-13T11:39:37.577Z,99270.19
2024-03-13T11:41:40.533Z,99273.09
2024-03-13T11:43:43.527Z,99267.97
2024-03-13T11:45:46.629Z,99270.22
2024-03-13T11:47:49.989Z,99263.28
2024-03-13T11:49:58.706Z,99263.13
2024-03-13T11:52:12.438Z,99261.88
2024-03-13T11:54:15.304Z,99256.78
2024-03-13T11:56:21.945Z,99266.25
2024-03-13T11:58:27.239Z,99264.88
2024-03-13T12:00:34.067Z,99254.81
2024-03-13T12:02:40.155Z,99265.84
2024-03-13T12:04:44.064Z,99258.94
2024-03-13T12:06:48.587Z,99254.31
2024-03-13T12:08:53.031Z,99255.81
2024-03-13T12:10:55.985Z,99256.28
2024-03-13T12:12:59.223Z,99257.69
2024-03-13T12:15:02.317Z,99243.94
2024-03-13T12:17:06.831Z,99258.44
2024-03-13T12:19:11.509Z,99244.44
2024-03-13T12:21:15.336Z,99245.56
2024-03-13T12:23:19.578Z,99244.59
2024-03-13T12:25:22.984Z,99254.66
2024-03-13T12:27:26.573Z,99253.03
2024-03-13T12:29:29.814Z,99245.16
2024-03-13T12:31:32.914Z,99249.41
2024-03-13T12:33:37.790Z,99243.75
2024-03-13T12:35:40.681Z,99237.19
2024-03-13T12:37:43.647Z,99243.34
2024-03-13T12:39:47.788Z,99249.31
2024-03-13T12:41:51.245Z,99239.94
2024-03-13T12:43:54.278Z,99251.13
2024-03-13T12:45:57.218Z,99245.22
2024-03-13T12:48:00.877Z,99246.03
2024-03-13T12:50:07.874Z,99246.47
2024-03-13T12:52:12.407Z,99246.47
2024-03-13T12:54:16.936Z,99249.41
2024-03-13T12:56:20.257Z,99246.69
2024-03-13T12:58:24.057Z,99249.44
2024-03-13T13:00:27.530Z,99249.13
2024-03-13T13:02:30.537Z,99245.28
2024-03-13T13:04:33.410Z,99247.94
2024-03-13T13:06:36.578Z,99246.41
2024-03-13T13:08:40.135Z,99243.19
2024-03-13T13:10:43.202Z,99244.91
2024-03-13T13:12:46.380Z,99246.16
2024-03-13T13:14:49.596Z,99241.28
2024-03-13T13:16:52.998Z,99248.00
2024-03-13T13:18:56.074Z,99249.75
2024-03-13T13:21:00.050Z,99244.69
2024-03-13T13:23:05.101Z,99252.31
2024-03-13T13:25:08.537Z,99243.47
2024-03-13T13:27:11.789Z,99256.19
2024-03-13T13:29:14.769Z,99255.19
2024-03-13T13:31:18.159Z,99247.09
2024-03-13T13:33:21.048Z,99247.59
2024-03-13T13:35:25.345Z,99250.88
2024-03-13T13:37:28.895Z,99251.56
2024-03-13T13:39:31.752Z,99236.09
2024-03-13T13:41:35.859Z,99242.22
2024-03-13T13:43:39.053Z,99247.03
2024-03-13T13:45:42.404Z,99241.97
2024-03-13T13:47:47.031Z,99249.72
2024-03-13T13:49:50.487Z,99243.25
2024-03-13T13:51:53.402Z,99245.38
2024-03-13T13:53:56.329Z,99241.38
2024-03-13T13:55:59.174Z,99244.88
2024-03-13T13:58:05.346Z,99252.25
2024-03-13T14:00:12.073Z,99257.19
2024-03-13T14:02:19.629Z,99251.91
2024-03-13T14:04:22.783Z,99247.72
2024-03-13T14:06:26.742Z,99253.13
2024-03-13T14:08:30.011Z,99256.75
2024-03-13T14:10:32.961Z,99257.09
2024-03-13T14:12:35.915Z,99252.41
2024-03-13T14:14:40.105Z,99259.44
2024-03-13T14:16:43.466Z,99255.69
2024-03-13T14:18:47.133Z,99254.41
2024-03-13T14:20:50.076Z,99258.25
2024-03-13T14:22:55.785Z,99255.56
2024-03-13T14:25:00.495Z,99248.41
2024-03-13T14:27:04.206Z,99255.66
2024-03-13T14:29:14.976Z,99258.72
2024-03-13T14:31:18.307Z,99260.13
2024-03-13T14:33:21.730Z,99252.03
2024-03-13T14:35:24.589Z,99260.03
2024-03-13T14:37:27.428Z,99254.53
2024-03-13T14:39:33.000Z,99255.56
2024-03-13T14:41:36.441Z,99254.03
2024-03-13T14:43:39.881Z,99253.19
2024-03-13T14:45:42.789Z,99247.81
2024-03-13T14:47:47.666Z,99243.59
2024-03-13T14:49:51.435Z,99244.53
2024-03-13T14:51:55.089Z,99244.88
2024-03-13T14:53:58.371Z,99238.69
2024-03-13T14:56:01.387Z,99243.84
2024-03-13T14:58:05.109Z,99241.53
2024-03-13T15:00:12.028Z,99240.13
2024-03-13T15:02:15.214Z,99237.06
2024-03-13T15:04:18.355Z,99240.34
2024-03-13T15:06:21.219Z,99237.66
2024-03-13T15:08:24.426Z,99248.66
2024-03-13T15:10:27.638Z,99250.53
2024-03-13T15:12:31.010Z,99245.03
2024-03-13T15:14:34.824Z,99252.53
2024-03-13T15:16:38.095Z,99254.28
2024-03-13T15:18:41.086Z,99249.34
2024-03-13T15:20:47.196Z,99257.09
2024-03-13T15:22:50.846Z,99251.47
2024-03-13T15:24:54.214Z,99256.06
2024-03-13T15:26:57.694Z,99261.56
2024-03-13T15:29:00.684Z,99268.94
2024-03-13T15:31:04.124Z,99265.75
2024-03-13T15:33:07.330Z,99262.13
2024-03-13T15:35:10.411Z,99273.34
2024-03-13T15:37:13.324Z,99272.44
2024-03-13T15:39:16.412Z,99272.44
2024-03-13T15:41:20.322Z,99282.50
2024-03-13T15:43:23.434Z,99271.38
2024-03-13T15:45:26.473Z,99279.34
2024-03-13T15:47:29.867Z,99272.56
2024-03-13T15:49:33.224Z,99276.06
2024-03-13T15:51:36.154Z,99280.25
2024-03-13T15:53:44.493Z,99280.13
2024-03-13T15:55:48.284Z,99280.13
2024-03-13T15:57:51.370Z,99277.91
2024-03-13T15:59:54.561Z,99278.38
2024-03-13T16:01:57.826Z,99268.19
2024-03-13T16:04:00.625Z,99275.91
2024-03-13T16:06:03.620Z,99269.22
2024-03-13T16:08:08.079Z,99267.56
2024-03-13T16:10:10.993Z,99278.78
2024-03-13T16:12:14.047Z,99271.41
2024-03-13T16:14:18.686Z,99267.28
2024-03-13T16:16:22.286Z,99271.84
2024-03-13T16:18:25.425Z,99272.28
2024-03-13T16:20:28.440Z,99272.50
2024-03-13T16:22:31.400Z,99277.91
2024-03-13T16:24:34.318Z,99277.91
2024-03-13T16:26:38.827Z,99283.72
2024-03-13T16:28:41.737Z,99279.63
2024-03-13T16:30:45.264Z,99279.34
2024-03-13T16:32:48.496Z,99282.63
2024-03-13T16:34:51.605Z,99278.53
2024-03-13T16:36:54.457Z,99283.81
2024-03-13T16:39:02.439Z,99280.84
2024-03-13T16:41:05.554Z,99281.97
2024-03-13T16:43:08.518Z,99278.31
2024-03-13T16:45:16.612Z,99288.84
2024-03-13T16:47:21.018Z,99287.56
2024-03-13T16:49:23.871Z,99288.84
2024-03-13T16:51:27.632Z,99285.72
2024-03-13T16:53:30.554Z,99292.13
2024-03-13T16:55:33.783Z,99292.72
2024-03-13T16:57:36.752Z,99296.59
2024-03-13T16:59:39.652Z,99287.13
2024-03-13T17:01:47.161Z,99286.22
2024-03-13T17:03:50.443Z,99291.16
2024-03-13T17:05:53.396Z,99294.00
2024-03-13T17:07:56.925Z,99303.91
2024-03-13T17:09:59.804Z,99299.56
2024-03-13T17:12:02.702Z,99304.16
2024-03-13T17:14:05.732Z,99308.75
2024-03-13T17:16:11.137Z,99304.66
2024-03-13T17:18:14.044Z,99305.25
2024-03-13T17:20:18.350Z,99305.47
2024-03-13T17:22:25.747Z,99305.91
2024-03-13T17:24:29.639Z,99307.88
2024-03-13T17:26:34.071Z,99311.22
2024-03-13T17:28:36.918Z,99318.38
2024-03-13T17:30:39.736Z,99315.69
2024-03-13T17:32:43.183Z,99317.19
2024-03-13T17:34:46.071Z,99319.69
2024-03-13T17:36:49.078Z,99328.19
2024-03-13T17:38:51.934Z,99317.91
2024-03-13T17:40:55.057Z,99325.38
2024-03-13T17:42:57.897Z,99316.72
2024-03-13T17:45:00.942Z,99316.53
2024-03-13T17:47:04.646Z,99313.31
2024-03-13T17:49:07.670Z,99315.22
2024-03-13T17:51:11.314Z,99318.78
2024-03-13T17:53:16.474Z,99322.94
2024-03-13T17:55:19.990Z,99331.28
2024-03-13T17:57:22.939Z,99325.31
2024-03-13T17:59:25.859Z,99329.84
2024-03-13T18:01:28.857Z,99323.66
2024-03-13T18:03:32.124Z,99330.06
2024-03-13T18:05:35.407Z,99324.53
2024-03-13T18:07:38.214Z,99327.19
2024-03-13T18:09:44.332Z,99329.28
2024-03-13T18:11:48.299Z,99335.91
2024-03-13T18:13:51.351Z,99331.19
2024-03-13T18:15:54.302Z,99334.09
2024-03-13T18:17:57.202Z,99341.56
2024-03-13T18:20:00.348Z,99339.09
2024-03-13T18:22:03.325Z,99339.34
2024-03-13T18:24:06.316Z,99337.69
2024-03-13T18:26:12.450Z,99344.13
2024-03-13T18:28:15.847Z,99343.34
2024-03-13T18:30:18.725Z,99345.19
2024-03-13T18:32:21.769Z,99339.84
2024-03-13T18:34:26.388Z,99341.50
2024-03-13T18:36:29.426Z,99342.53
2024-03-13T18:38:32.321Z,99338.00
2024-03-13T18:40:36.592Z,99338.00
2024-03-13T18:42:39.589Z,99341.09
2024-03-13T18:44:42.856Z,99345.88
2024-03-13T18:46:45.737Z,99347.31
2024-03-13T18:48:48.669Z,99344.63
2024-03-13T18:50:51.769Z,99337.38
2024-03-13T18:52:55.199Z,99339.25
2024-03-13T18:55:03.578Z,99339.25
2024-03-13T18:57:06.370Z,99340.28
2024-03-13T18:59:11.014Z,99332.25
2024-03-13T19:01:15.924Z,99336.63
2024-03-13T19:03:20.973Z,99332.56
2024-03-13T19:05:25.491Z,99341.25
2024-03-13T19:07:29.050Z,99341.03
2024-03-13T19:09:31.888Z,99347.41
2024-03-13T19:11:35.065Z,99345.97
2024-03-13T19:13:38.685Z,99348.69
2024-03-13T19:15:41.528Z,99345.38
2024-03-13T19:17:44.728Z,99338.19
2024-03-13T19:19:47.631Z,99340.25
2024-03-13T19:21:52.097Z,99341.50
2024-03-13T19:23:55.064Z,99343.72
2024-03-13T19:26:02.501Z,99345.78
2024-03-13T19:28:05.821Z,99347.88
2024-03-13T19:30:09.036Z,99346.00
2024-03-13T19:32:12.406Z,99346.44
2024-03-13T19:34:15.914Z,99346.69
2024-03-13T19:36:19.054Z,99353.88
2024-03-13T19:38:22.329Z,99353.25
2024-03-13T19:40:25.175Z,99353.09
2024-03-13T19:42:28.753Z,99357.59
2024-03-13T19:44:31.746Z,99355.94
2024-03-13T19:46:35.812Z,99355.34
2024-03-13T19:48:39.594Z,99359.88
2024-03-13T19:50:44.148Z,99354.75
2024-03-13T19:52:47.029Z,99356.19
2024-03-13T19:54:49.921Z,99353.09
2024-03-13T19:56:52.912Z,99356.59
2024-03-13T19:58:56.041Z,99348.78
2024-03-13T20:00:59.585Z,99349.38
2024-03-13T20:03:08.801Z,99343.84
2024-03-13T20:05:15.398Z,99346.53
2024-03-13T20:07:19.352Z,99346.94
2024-03-13T20:09:22.969Z,99345.28
2024-03-13T20:11:25.972Z,99347.34
2024-03-13T20:13:28.906Z,99342.41
2024-03-13T20:15:31.701Z,99343.84
2024-03-13T20:17:34.797Z,99344.91
2024-03-13T20:19:37.936Z,99348.81
2024-03-13T20:21:40.943Z,99347.38
2024-03-13T20:23:44.033Z,99349.19
2024-03-13T20:25:47.257Z,99346.09
2024-03-13T20:27:50.369Z,99345.28
2024-03-13T20:29:53.383Z,99335.78
2024-03-13T20:31:56.887Z,99327.75
2024-03-13T20:34:02.058Z,99335.22
2024-03-13T20:36:05.118Z,99336.66
2024-03-13T20:38:08.092Z,99330.47
2024-03-13T20:40:14.224Z,99333.78
2024-03-13T20:42:17.507Z,99333.78
2024-03-13T20:44:22.096Z,99335.25
2024-03-13T20:46:24.947Z,99335.03
2024-03-13T20:48:28.577Z,99338.09
2024-03-13T20:50:31.605Z,99329.69
2024-03-13T20:52:34.605Z,99337.91
2024-03-13T20:54:38.629Z,99337.91
2024-03-13T20:56:41.902Z,99338.91
2024-03-13T20:58:48.226Z,99340.97
2024-03-13T21:00:51.060Z,99339.13
2024-03-13T21:02:56.711Z,99333.56
2024-03-13T21:04:59.566Z,99327.22
2024-03-13T21:07:02.456Z,99343.66
2024-03-13T21:09:05.307Z,99341.59
2024-03-13T21:11:09.087Z,99344.50
2024-03-13T21:13:12.375Z,99342.03
2024-03-13T21:15:15.296Z,99339.13
2024-03-13T21:17:18.877Z,99344.91
2024-03-13T21:19:22.094Z,99336.47
2024-03-13T21:21:25.409Z,99334.22
2024-03-13T21:23:28.458Z,99323.50
2024-03-13T21:25:31.217Z,99325.34
2024-03-13T21:27:34.195Z,99322.88
2024-03-13T21:29:37.403Z,99312.41
2024-03-13T21:31:40.986Z,99314.84
2024-03-13T21:33:44.202Z,99317.50
2024-03-13T21:35:47.285Z,99311.97
2024-03-13T21:37:50.331Z,99324.94
2024-03-13T21:39:53.279Z,99322.06
2024-03-13T21:41:56.160Z,99331.53
2024-03-13T21:43:59.115Z,99327.63
2024-03-13T21:46:01.954Z,99324.13
2024-03-13T21:48:05.422Z,99326.38
2024-03-13T21:50:09.815Z,99324.69
2024-03-13T21:52:12.627Z,99323.03
2024-03-13T21:54:15.606Z,99319.78
2024-03-13T21:56:18.506Z,99324.72
2024-03-13T21:58:21.621Z,99326.34
2024-03-13T22:00:24.580Z,99323.50
2024-03-13T22:02:27.657Z,99329.63
2024-03-13T22:04:30.607Z,99330.88
2024-03-13T22:06:34.715Z,99327.81
2024-03-13T22:08:37.596Z,99324.31
2024-03-13T22:10:42.288Z,99332.13
2024-03-13T22:12:48.403Z,99327.59
2024-03-13T22:14:51.395Z,99325.34
2024-03-13T22:16:54.596Z,99335.03
2024-03-13T22:18:58.960Z,99328.22
2024-03-13T22:21:02.808Z,99328.44
2024-03-13T22:23:07.612Z,99326.16
2024-03-13T22:25:11.608Z,99329.47
2024-03-13T22:27:14.529Z,99328.03
2024-03-13T22:29:17.910Z,99323.91
2024-03-13T22:31:20.840Z,99323.06
2024-03-13T22:33:23.870Z,99322.66
2024-03-13T22:35:26.827Z,99324.28
2024-03-13T22:37:30.009Z,99324.09
2024-03-13T22:39:32.827Z,99329.03
2024-03-13T22:41:35.798Z,99328.81
2024-03-13T22:43:38.669Z,99323.88
2024-03-13T22:45:41.618Z,99322.03
2024-03-13T22:47:47.734Z,99322.47
2024-03-13T22:49:52.716Z,99331.50
2024-03-13T22:51:55.487Z,99325.13
2024-03-13T22:53:58.710Z,99323.88
2024-03-13T22:56:01.620Z,99326.75
2024-03-13T22:58:04.798Z,99324.72
2024-03-13T23:00:21.612Z,99320.19
2024-03-13T23:02:24.536Z,99326.97
2024-03-13T23:04:27.436Z,99318.78
2024-03-13T23:06:30.624Z,99324.28
2024-03-13T23:08:36.477Z,99319.16
2024-03-13T23:10:39.482Z,99317.91
2024-03-13T23:12:43.158Z,99315.22
2024-03-13T23:14:46.439Z,99313.81
2024-03-13T23:16:49.276Z,99321.41
2024-03-13T23:18:53.241Z,99314.41
2024-03-13T23:20:56.558Z,99319.13
2024-03-13T23:22:59.456Z,99311.91
2024-03-13T23:25:02.629Z,99312.13
2024-03-13T23:27:08.393Z,99321.56
2024-03-13T23:29:12.374Z,99320.94
2024-03-13T23:31:16.690Z,99321.34
2024-03-13T23:33:21.078Z,99316.03
2024-03-13T23:35:24.206Z,99315.03
2024-03-13T23:37:27.000Z,99311.28
2024-03-13T23:39:30.115Z,99315.00
2024-03-13T23:41:33.117Z,99316.25
2024-03-13T23:43:36.026Z,99314.41
2024-03-13T23:45:38.905Z,99313.97
2024-03-13T23:47:42.219Z,99307.59
2024-03-13T23:49:45.155Z,99305.53
2024-03-13T23:51:48.063Z,99307.59
2024-03-13T23:53:51.568Z,99300.81
2024-03-13T23:55:55.096Z,99309.25
2024-03-13T23:57:57.952Z,99306.56
